Airfield :
LOGIN :

Register | Disclaimer

   EN    FR    IT 

 










Legend :    VFR   Marginal VFR   IFR   Intensive IFR   Very Intensive IFR
Visi :
Ceiling :
>= 8 km
>= 3000ft
5 to 8 km
1000 to 3000 ft
1500m to 5 km
500 to 1000 ft
800 to 1500m
200 to 500 ft
< 800m
< 200 ft
Symbols :   Thunderstorms  Fog  Heavy snow  Heavy precipitations  Wind > 20 kt
SIGMETs :     Misc.  Thunderstorms  Icing  Turbulence  Mountain Waves  Volcanic Ashes







- Airport Elevation : 290 ft
- IATA code : LAI
- Download approach charts


LFRO - Lannion

CURRENT METAR :
  • 251800Z AUTO 06004KT 020V090 CAVOK 13/06 Q1034 NOSIG

EXPIRED METARs :
  • 251730Z AUTO 06005KT 350V120 CAVOK 14/06 Q1034 NOSIG
  • 251700Z AUTO 07008KT 030V090 CAVOK 15/05 Q1034 NOSIG
  • 251630Z AUTO 08008KT 040V110 CAVOK 15/04 Q1034 NOSIG
  • 251600Z AUTO 05007KT 360V100 CAVOK 16/04 Q1034 NOSIG
  • 251530Z AUTO 06007KT 020V110 CAVOK 16/05 Q1034 NOSIG

TAF TAF LFRO
Valid from the 25 at 12:00 until the 26 at 12:00 UTC


251100Z 2512/2612 12007KT CAVOK
No reported NOTAMs for that airfield.



MET'MAP, your aeronautical weather chart ! - Copyright ORBIFLY December 2007 - Disclaimer

ORBIFLY MET'MAP TEAM :

Programming & Development : Alexandra Zaïnal
Concept & Development : Baudouin d'Aumeries
Co-Development & Prog : Marc-Olivier Méhu
Technical & hardware support : Manuel Goepfert

Contact : metmap@orbifly.com




SOURCES & CREDITS :

   NOAA